1932 Tropical Cyclone NOT_NAMED (1932017S14141)


IBTrACS version v04r00. Visit IBTrACS website for data access.
Please direct all questions to the IBTrACS Q and A forum

Storm track - Intensity - Wind Radii - Intensity Data - Source Data - All data

Summary Information

Storm ID 1932017S14141
Start Jan 16 23Z
Landfall Jan 17 12Z
Max Intensity 40 kt (Jan 18 00Z), 994 mb (Jan 17 23Z)
End Jan 20 23Z
ATCF IDs
Track status Best track data.

Storm track plot

Map of storm track

Intensity plots

Map of storm track

Radial wind information

No radial wind information for this storm


Position and Intensity Table

BASIN ISO_TIME_________ NATURE LAT LON WMO PRES BOM PRES DS824 WIND DS824 PRES
degrees north degrees east mb mb kts mb
SP 1932-01-16 23:00:00 NR -14.00 140.60
SP 1932-01-17 00:00:00 NR -14.03 140.68
SP 03:00:00 NR -14.13 140.94
SP 06:00:00 NR -14.22 141.18
SP 09:00:00 NR -14.31 141.40
SP 11:00:00 NR -14.37 141.54
SP 12:00:00 TS -14.39 141.59
SP 13:00:00 TS -14.42 141.64
SP 15:00:00 TS -14.48 141.75
SP 18:00:00 TS -14.58 141.94
SP 21:00:00 TS -14.70 142.19
SP 23:00:00 TS -14.81 142.39 994 994
SP 1932-01-18 00:00:00 TS -14.88 142.52 40 994
SP 03:00:00 TS -15.12 142.97
SP 06:00:00 TS -15.39 143.50
SP 09:00:00 TS -15.70 144.06
SP 11:00:00 TS -15.91 144.43
SP 12:00:00 TS -16.02 144.60
SP 15:00:00 TS -16.33 145.12
SP 18:00:00 TS -16.65 145.60
SP 21:00:00 TS -16.95 146.01
SP 23:00:00 TS -17.14 146.26
SP 1932-01-19 00:00:00 TS -17.22 146.38
SP 03:00:00 TS -17.44 146.69
SP 06:00:00 TS -17.62 146.97
SP 09:00:00 TS -17.77 147.21
SP 11:00:00 TS -17.86 147.36
SP 12:00:00 TS -17.91 147.43
SP 15:00:00 TS -18.03 147.64
SP 18:00:00 TS -18.15 147.84
SP 21:00:00 TS -18.26 148.04
SP 23:00:00 TS -18.34 148.17
SP 1932-01-20 00:00:00 TS -18.38 148.23
SP 03:00:00 NR -18.52 148.46
SP 06:00:00 NR -18.64 148.71
SP 09:00:00 NR -18.76 148.96
SP 11:00:00 NR -18.83 149.13
SP 12:00:00 NR -18.86 149.21
SP 15:00:00 NR -18.94 149.46
SP 18:00:00 NR -19.00 149.70
SP 21:00:00 NR -19.06 149.94
SP 23:00:00 NR -19.10 150.10

Source Information

Agency Information
USA
TOKYO
CMA
HKO
NEWDELHI
REUNION
BOM IDCKMSTM0S.csv:Line=779:unnamed
NADI
WELLINGTON
DS824 aus_area.dat:74:NOT NAMED
TD9636 cons_worldwide_trop_cyclone_18710101-19891231-006:Line=1890
TD9635
NEUMANN
MLC

All available IBTrACS Data

SEASON BASIN SUBBASIN ISO_TIME_________ NATURE LAT LON WMO PRES WMO AGENCY DIST2LAND LANDFALL IFLAG USA SSHS BOM LAT BOM LON BOM PRES BOM PRES_METHOD DS824 LAT DS824 LON DS824 STAGE DS824 WIND DS824 PRES TD9636 LAT TD9636 LON TD9636 STAGE STORM SPEED STORM DIR
Year degrees north degrees east mb km km 1 degrees north degrees east mb degrees north degrees east kts mb degrees north degrees east kts degrees
1932 SP EA 1932-01-16 23:00:00 NR -14.00 140.60 bom 97 87 ______O___O___ -1 -13.90 140.60 -14.10 140.60 7 5 111
1932 SP EA 1932-01-17 00:00:00 NR -14.03 140.68 87 68 ______P___P___ -1 -13.94 140.68 -14.13 140.69 7 5 111
1932 SP EA 03:00:00 NR -14.13 140.94 68 43 ______P___P___ -1 -14.05 140.91 -14.21 140.97 7 5 112
1932 SP EA 06:00:00 NR -14.22 141.18 43 21 ______P___P___ -1 -14.16 141.13 -14.29 141.23 7 5 112
1932 SP EA 09:00:00 NR -14.31 141.40 21 10 ______P___P___ -1 -14.27 141.34 -14.36 141.46 7 5 113
1932 SP EA 11:00:00 NR -14.37 141.54 10 0 ______P___O___ -1 -14.33 141.47 -14.40 141.60 7 4 115
1932 SP EA 12:00:00 TS -14.39 141.59 0 0 ______P__OP___ -1 -14.37 141.54 -14.40 141.50 TC -14.42 141.66 7 3 119
1932 SP EA 13:00:00 TS -14.42 141.64 bom 0 0 ______O__PP___ -1 -14.40 141.60 -14.43 141.56 TC -14.44 141.72 7 4 118
1932 SP EA 15:00:00 TS -14.48 141.75 0 0 ______P__PP___ -1 -14.46 141.72 -14.49 141.69 TC -14.48 141.84 7 4 118
1932 SP EA 18:00:00 TS -14.58 141.94 0 0 ______P__PP___ -1 -14.57 141.90 -14.60 141.90 TC -14.56 142.03 7 5 118
1932 SP EA 21:00:00 TS -14.70 142.19 0 0 ______P__PP___ -1 -14.69 142.12 -14.73 142.17 TC -14.68 142.28 7 6 119
1932 SP EA 23:00:00 TS -14.81 142.39 994 bom 0 0 ______O__PO___ -1 -14.80 142.30 994 4 -14.84 142.38 TC -14.80 142.50 7 7 119
1932 SP EA 1932-01-18 00:00:00 TS -14.88 142.52 0 0 ______P__OP___ -1 -14.86 142.42 -14.90 142.50 TC 40 994 -14.87 142.65 7 10 118
1932 SP EA 03:00:00 TS -15.12 142.97 0 0 ______P__PP___ -1 -15.09 142.84 -15.12 142.92 TC -15.14 143.16 7 11 119
1932 SP EA 06:00:00 TS -15.39 143.50 0 0 ______P__PP___ -1 -15.36 143.35 -15.38 143.41 TC -15.45 143.74 7 12 119
1932 SP EA 09:00:00 TS -15.70 144.06 0 0 ______P__PP___ -1 -15.65 143.89 -15.67 143.95 TC -15.78 144.33 7 12 120
1932 SP EA 11:00:00 TS -15.91 144.43 0 0 ______P__PO___ -1 -15.86 144.27 -15.87 144.31 TC -16.00 144.70 7 12 121
1932 SP EA 12:00:00 TS -16.02 144.60 0 0 ______P__PP___ -1 -15.97 144.46 -15.97 144.49 TC -16.11 144.87 7 12 122
1932 SP EA 15:00:00 TS -16.33 145.12 0 0 ______P__PP___ -1 -16.29 145.00 -16.29 145.02 TC -16.43 145.35 7 11 124
1932 SP EA 18:00:00 TS -16.65 145.60 bom 10 0 ______O__OP___ -1 -16.60 145.50 -16.60 145.50 TC -16.75 145.79 7 11 126
1932 SP EA 21:00:00 TS -16.95 146.01 10 10 ______P__PP___ -1 -16.91 145.93 -16.91 145.92 TC -17.03 146.18 7 10 128
1932 SP EA 23:00:00 TS -17.14 146.26 bom 38 30 ______O__PO___ -1 -17.10 146.20 -17.11 146.18 TC -17.20 146.40 7 9 128
1932 SP EA 1932-01-19 00:00:00 TS -17.22 146.38 38 33 ______P__OP___ -1 -17.19 146.33 -17.20 146.30 TC -17.27 146.50 7 8 126
1932 SP EA 03:00:00 TS -17.44 146.69 63 63 ______P__PP___ -1 -17.43 146.67 -17.45 146.64 TC -17.45 146.77 7 7 125
1932 SP EA 06:00:00 TS -17.62 146.97 95 95 ______P__PP___ -1 -17.62 146.97 -17.65 146.95 TC -17.59 146.99 7 6 124
1932 SP EA 09:00:00 TS -17.77 147.21 116 116 ______P__PP___ -1 -17.79 147.23 -17.82 147.22 TC -17.72 147.18 7 5 123
1932 SP EA 11:00:00 TS -17.86 147.36 138 138 ______P__PO___ -1 -17.88 147.39 -17.91 147.39 TC -17.80 147.30 7 5 122
1932 SP EA 12:00:00 TS -17.91 147.43 138 138 ______P__PP___ -1 -17.93 147.47 -17.95 147.47 TC -17.85 147.37 7 5 122
1932 SP EA 15:00:00 TS -18.03 147.64 152 148 ______P__PP___ -1 -18.05 147.68 -18.06 147.69 TC -18.00 147.56 7 5 122
1932 SP EA 18:00:00 TS -18.15 147.84 151 138 ______P__PP___ -1 -18.15 147.88 -18.15 147.91 TC -18.15 147.75 7 4 121
1932 SP EA 21:00:00 TS -18.26 148.04 138 138 ______P__PP___ -1 -18.24 148.07 -18.23 148.11 TC -18.30 147.95 7 4 121
1932 SP EA 23:00:00 TS -18.34 148.17 bom 149 139 ______O__PO___ -1 -18.30 148.20 -18.28 148.24 TC -18.40 148.10 7 4 123
1932 SP EA 1932-01-20 00:00:00 TS -18.38 148.23 139 138 ______P__OP___ -1 -18.33 148.27 -18.30 148.30 TC -18.45 148.18 7 5 123
1932 SP EA 03:00:00 NR -18.52 148.46 153 145 ______P___P___ -1 -18.42 148.47 TC -18.62 148.45 7 5 120
1932 SP EA 06:00:00 NR -18.64 148.71 161 148 ______P___P___ -1 -18.51 148.69 TC -18.78 148.73 7 5 117
1932 SP EA 09:00:00 NR -18.76 148.96 152 152 ______P___P___ -1 -18.59 148.91 TC -18.92 149.01 7 5 115
1932 SP EA 11:00:00 NR -18.83 149.13 158 155 ______P___O___ -1 -18.65 149.06 TC -19.00 149.20 7 5 113
1932 SP EA 12:00:00 NR -18.86 149.21 155 155 ______P___P___ -1 -18.68 149.14 TC -19.03 149.29 7 5 110
1932 SP EA 15:00:00 NR -18.94 149.46 172 162 ______P___P___ -1 -18.77 149.37 TC -19.11 149.55 7 5 108
1932 SP EA 18:00:00 NR -19.00 149.70 173 173 ______P___P___ -1 -18.86 149.60 TC -19.15 149.80 7 5 105
1932 SP EA 21:00:00 NR -19.06 149.94 176 176 ______P___P___ -1 -18.94 149.84 TC -19.18 150.04 7 5 104
1932 SP EA 23:00:00 NR -19.10 150.10 bom 191 ______O___O___ -1 -19.00 150.00 TC -19.20 150.20 7 5 104